NACIONALNO OTVORENO PRVENSTVO HRVATSKE U KARTINGU
1. NAGRADA CONTINENTAL CONTITECH '08
Čakovec-Belica, 25.05.2008.

KLASA I - 1. UTRKA
Poz. S.b. Vozač Klub Nac. Krug Vrijeme Zaostatak Bod.
1. 6 Leo Grdić Podravina Koprivnica HR 5 5:52,326 0:00,000 -
2. 3 Fran Tisaj KK Koprivnica HR 5 6:12,099 0:19,773 -
3. 2 Muhammad Pličanić AK Info Kart HR 5 6:13,599 0:21,273 -
4. 7 Jan Pokos AK Speedy HR 5 6:30,826 0:38,500 -
5. 4 Matija Kovačić KK 1 Zagreb HR 5 6:58,744 1:06,418 -
 
KLASA II - 1. UTRKA
Poz. S.b. Vozač Klub Nac. Krug Vrijeme Zaostatak Bod.
1. 6 Mislav Mikulec AK Info Kart HR 10 9:59,633 0:00,000 20
2. 2 Moni Petrović AK Speedy HR 10 9:59,967 0:00,334 15
3. 25 Martin Kodrić KK 1 Zagreb HR 10 10:00,644 0:01,011 12
4. 3 Juraj Kovačić KK 1 Zagreb HR 10 10:04,920 0:05,287 10
5. 21 Damian Sekulić KU Novi Marof HR 10 10:16,760 0:17,127 8
6. 15 Benjamin Žganec KK 1 Zagreb HR 10 10:17,706 0:18,073 6
7. 12 Dino Paleka KK Koprivnica HR 10 10:28,467 0:28,834 4
8. 22 Luka Đurđ KK Koprivnica HR 10 10:31,433 0:31,800 3
9. 8 Ivica Šimunić AMK Stubaki HR 9 10:03,797 1 krug 2
 
KLASA II - 2. UTRKA
Poz. S.b. Vozač Klub Nac. Krug Vrijeme Zaostatak Bod.
1. 25 Martin Kodrić KK 1 Zagreb HR 10 9:58,556 0:00,000 20
2. 2 Moni Petrović AK Speedy HR 10 9:58,876 0:00,320 15
3. 6 Mislav Mikulec AK Info Kart HR 10 9:59,051 0:00,495 12
4. 3 Juraj Kovačić KK 1 Zagreb HR 10 10:04,531 0:05,975 10
5. 15 Benjamin Žganec KK 1 Zagreb HR 10 10:04,595 0:06,039 8
6. 22 Luka Đurđ KK Koprivnica HR 10 10:32,209 0:33,653 6
7. 12 Dino Paleka KK Koprivnica HR 10 10:44,019 0:45,463 4
8. 8 Ivica Šimunić AMK Stubaki HR 10 10:52,026 0:53,470 3
- 21 Damian Sekulić KU Novi Marof HR 7 odustao -
 
KLASA V - 1. UTRKA
Poz. S.b. Vozač Klub Nac. Krug Vrijeme Zaostatak Bod.
1. 22 Nikola Belohradski Klakson HR 10 8:20,771 0:00,000 20
2. 405 Borna Vlašić Podravina Koprivnica HR 10 8:22,583 0:01,812 15
3. 7 Tomislav Pavlić KK 1 Zagreb HR 10 8:27,702 0:06,931 12
- 424 Sanjin Trope AK Quickly HR 5 odustao -
- 17 Dominik Đurđ KK Koprivnica HR 1 odustao -
 
KLASA V - 2. UTRKA
Poz. S.b. Vozač Klub Nac. Krug Vrijeme Zaostatak Bod.
1. 22 Nikola Belohradski Klakson HR 10 8:23,348 0:00,000 20
2. 405 Borna Vlašić Podravina Koprivnica HR 10 8:25,731 0:02,383 15
3. 424 Sanjin Trope AK Quickly HR 10 8:25,867 0:02,519 12
4. 7 Tomislav Pavlić KK 1 Zagreb HR 10 8:32,230 0:08,882 10
- 17 Dominik Đurđ KK Koprivnica HR 6 odustao -
 
KLASA VII - 1. UTRKA
Poz. S.b. Vozač Klub Nac. Krug Vrijeme Zaostatak Bod.
1. 2 Damir Nakić KK 1 Zagreb HR 16 13:28,474 0:00,000 20
2. 15 Neven Perčić AMD Matulji Racing HR 16 13:33,904 0:05,430 15
3. 3 Miljenko Antolić KK 1 Zagreb HR 16 13:39,361 0:10,887 12
4. 11 Igor Cvetko SAK Split HR 16 13:46,506 0:18,032 10
5. 33 Renato Dujmović AMK Buzet HR 16 13:48,711 0:20,237 8
6. 1 Ratko Medenec KK 1 Zagreb HR 16 13:50,838 0:22,364 6
7. 6 Mario Spaija SAK Split HR 16 14:09,298 0:40,824 4
8. 10 Zlatko Banić SAK Split HR 16 14:10,707 0:42,233 3
9. 5 Tomislav Lovrenc AMK Cobra HR 15 14:08,404 1 krug 2
- 96 Sanjin Sirotić AMK Buzet HR 12 odustao -
- 7 Branimir Rojko KK Koprivnica HR 0 odustao -
- 18 Ivan Putnik SAK Split HR 0 nije startao -
 
KLASA VII - 2. UTRKA
Poz. S.b. Vozač Klub Nac. Krug Vrijeme Zaostatak Bod.
1. 2 Damir Nakić KK 1 Zagreb HR 15 12:42,618 0:00,000 20
2. 15 Neven Perčić AMD Matulji Racing HR 15 12:43,587 0:00,969 15
3. 11 Igor Cvetko SAK Split HR 15 12:51,799 0:09,181 12
4. 3 Miljenko Antolić KK 1 Zagreb HR 15 12:54,358 0:11,740 10
5. 7 Branimir Rojko KK Koprivnica HR 15 12:58,578 0:15,960 8
6. 1 Ratko Medenec KK 1 Zagreb HR 15 13:05,788 0:23,170 6
7. 33 Renato Dujmović AMK Buzet HR 15 13:08,125 0:25,507 4
8. 6 Mario Spaija SAK Split HR 15 13:11,745 0:29,127 3
9. 10 Zlatko Banić SAK Split HR 15 13:12,684 0:30,066 2
10. 96 Sanjin Sirotić AMK Buzet HR 15 13:13,617 0:30,999 1
- 18 Ivan Putnik SAK Split HR 1 odustao -
- 5 Tomislav Lovrenc AMK Cobra HR 0 nije startao -
 
KLASA VIII - 1. UTRKA
Poz. S.b. Vozač Klub Nac. Krug Vrijeme Zaostatak Bod.
1. 6 Kristijan Habulin KK 1 Zagreb HR 14 11:33,206 0:00,000 20
2. 4 Karlo Golub KK 1 Zagreb HR 14 11:39,368 0:06,162 15
3. 1 Sven Gorup AMD Zanatlija HR 14 11:40,160 0:06,954 12
4. 617 Hinko Pavlec KU Novi Marof HR 14 11:40,977 0:07,771 10
5. 74 Renco Majdak KK 1 Zagreb HR 14 12:17,538 0:44,332 8
6. 13 Matija Momčilović Podravina Koprivnica HR 14 12:17,656 0:44,450 6
- 35 Konrad Mulvaj Podravina Koprivnica HR 6 odustao -
 
KLASA VIII - 2. UTRKA
Poz. S.b. Vozač Klub Nac. Krug Vrijeme Zaostatak Bod.
1. 13 Matija Momčilović Podravina Koprivnica HR 15 12:54,563 0:00,000 20
2. 6 Kristijan Habulin KK 1 Zagreb HR 15 12:55,898 0:01,335 15
3. 1 Sven Gorup AMD Zanatlija HR 15 13:02,591 0:08,028 12
4. 74 Renco Majdak KK 1 Zagreb HR 15 13:07,649 0:13,086 10
5. 617 Hinko Pavlec KU Novi Marof HR 15 13:08,458 0:13,895 8
6. 4 Karlo Golub KK 1 Zagreb HR 15 13:08,563 0:14,000 6
7. 35 Konrad Mulvaj Podravina Koprivnica HR 15 13:19,030 0:24,467 4
 
KLASA IX - 1. UTRKA
Poz. S.b. Vozač Klub Nac. Krug Vrijeme Zaostatak Bod.
1. 1 Vladimir Vukobrat AK Info Kart HR 14 12:56,402 0:00,000 20
2. 3 Samir Smailagić AK Info Kart HR 14 12:56,817 0:00,415 15
3. 7 Ninoslav Banić KK 1 Zagreb HR 14 13:16,926 0:20,524 12
4. 17 Alan Vorkapić KK Koprivnica HR 14 13:25,277 0:28,875 10
5. 4 Tihomir Špek KK 1 Zagreb HR 14 13:25,968 0:29,566 8
6. 5 Hrvoje Tisaj KK Koprivnica HR 14 13:26,260 0:29,858 6
7. 18 Nino Kovačić KK 1 Zagreb HR 14 13:31,012 0:34,610 4
8. 22 Miljenko Šimunić AMK Stubaki HR 14 13:55,327 0:58,925 3
9. 13 Tomislav Kelbl KK Koprivnica HR 10 9:41,117 4 kruga 2
 
KLASA IX - 2. UTRKA
Poz. S.b. Vozač Klub Nac. Krug Vrijeme Zaostatak Bod.
1. 3 Samir Smailagić AK Info Kart HR 10 9:19,140 0:00,000 20
2. 1 Vladimir Vukobrat AK Info Kart HR 10 9:19,678 0:00,538 15
3. 17 Alan Vorkapić KK Koprivnica HR 10 9:39,130 0:19,990 12
4. 5 Hrvoje Tisaj KK Koprivnica HR 10 9:39,519 0:20,379 10
5. 7 Ninoslav Banić KK 1 Zagreb HR 10 9:39,977 0:20,837 8
6. 18 Nino Kovačić KK 1 Zagreb HR 10 9:47,419 0:28,279 6
7. 4 Tihomir Špek KK 1 Zagreb HR 10 9:57,223 0:38,083 4
8. 13 Tomislav Kelbl KK Koprivnica HR 10 10:02,356 0:43,216 3
9. 22 Miljenko Šimunić AMK Stubaki HR 10 10:05,063 0:45,923 2
 
PRVENSTVO HRVATSKE